Time;durP1;ratioP1;P1;durP2;ratioP2;P2;SDS_P1;SDS_P2;PMS_P1;PMS_P2;Temp;Humidity;BMP_temperature;BMP_pressure;BME280_temperature;BME280_humidity;BME280_pressure;Samples;Min_cycle;Max_cycle;Signal;HPM_P1;HPM_P2
2021/05/17 06:46:42;;;;;;;1.47;1.10;;;;;;;14.71;72.56;97042.83;1884586;76;22822;-64
2021/05/17 06:49:09;;;;;;;2.17;0.88;;;;;;;14.69;73.04;97044.30;1850044;77;20960;-70
2021/05/17 06:51:39;;;;;;;4.67;0.93;;;;;;;14.74;73.23;97044.86;1852718;76;21894;-68
2021/05/17 06:54:09;;;;;;;3.80;0.90;;;;;;;14.87;73.77;97038.87;1840470;76;20922;-66
2021/05/17 06:56:46;;;;;;;1.65;0.60;;;;;;;14.98;72.30;97042.66;1843265;77;20922;-65
2021/05/17 06:59:31;;;;;;;1.15;0.80;;;;;;;14.99;72.42;97045.03;1854286;76;21032;-63
2021/05/17 07:01:57;;;;;;;1.27;0.78;;;;;;;15.02;72.51;97043.00;1763714;81;21019;-63
2021/05/17 07:04:27;;;;;;;4.25;0.75;;;;;;;14.92;69.85;97040.77;1767107;79;21566;-64
2021/05/17 07:06:59;;;;;;;1.25;0.70;;;;;;;14.87;70.41;97045.05;1803112;79;21451;-64
2021/05/17 07:12:13;;;;;;;0.95;0.80;;;;;;;14.89;70.97;97038.75;1803350;79;20969;-63
2021/05/17 07:14:41;;;;;;;1.50;0.88;;;;;;;15.04;71.45;97040.75;1802501;79;20946;-61
2021/05/17 07:17:10;;;;;;;1.42;0.50;;;;;;;15.12;69.61;97028.81;1802780;79;22311;-67
2021/05/17 07:19:37;;;;;;;1.32;0.75;;;;;;;15.17;69.40;97029.92;1801823;79;20891;-61
2021/05/17 07:24:50;;;;;;;0.80;0.80;;;;;;;15.27;68.05;97024.81;1789620;79;21082;-65
2021/05/17 07:27:18;;;;;;;1.37;0.70;;;;;;;15.28;68.07;97021.00;1778669;79;22341;-65
2021/05/17 07:29:46;;;;;;;1.50;0.80;;;;;;;15.33;68.74;97027.48;1790102;79;21269;-65
2021/05/17 07:32:15;;;;;;;0.95;0.80;;;;;;;15.45;68.79;97021.30;1783008;79;20918;-65
2021/05/17 07:34:42;;;;;;;0.70;0.70;;;;;;;15.61;68.97;97024.81;1771528;79;21574;-65
2021/05/17 07:37:11;;;;;;;0.62;0.60;;;;;;;15.76;67.69;97023.28;1771338;80;20986;-71
2021/05/17 07:39:38;;;;;;;1.17;0.85;;;;;;;15.88;66.90;97021.27;1770804;80;21088;-70
2021/05/17 07:42:06;;;;;;;4.95;1.22;;;;;;;16.00;67.08;97013.66;1770780;81;21133;-62
2021/05/17 07:44:34;;;;;;;1.52;1.10;;;;;;;16.14;66.74;97012.66;1771035;81;21574;-61
2021/05/17 07:47:01;;;;;;;4.75;1.22;;;;;;;16.25;66.84;97020.47;1773742;78;21515;-62
2021/05/17 07:49:37;;;;;;;5.90;1.12;;;;;;;16.35;66.96;97017.21;1776091;80;21098;-65
2021/05/17 07:52:00;;;;;;;3.30;1.15;;;;;;;16.52;66.97;97015.53;1775995;80;21083;-64
2021/05/17 07:54:29;;;;;;;4.03;1.00;;;;;;;16.72;66.83;97016.37;1786095;79;22614;-63
2021/05/17 07:56:56;;;;;;;4.05;1.07;;;;;;;16.93;64.89;97011.42;1782197;79;20949;-62
2021/05/17 07:59:27;;;;;;;71.12;16.90;;;;;;;17.04;65.45;97012.42;1770550;81;21582;-64
2021/05/17 08:01:53;;;;;;;4.60;2.50;;;;;;;17.10;65.11;97010.98;1770238;81;21543;-64
2021/05/17 08:04:21;;;;;;;1.60;0.85;;;;;;;17.23;65.05;97009.72;1772728;80;21111;-63
2021/05/17 08:06:48;;;;;;;3.02;0.80;;;;;;;17.42;65.30;97001.59;1773417;80;21049;-65
2021/05/17 08:09:15;;;;;;;5.97;1.10;;;;;;;17.61;63.69;97000.25;1773336;80;21585;-66
2021/05/17 08:11:44;;;;;;;3.35;1.20;;;;;;;17.74;62.91;96996.78;1773635;80;21515;-63
2021/05/17 08:14:11;;;;;;;2.72;1.00;;;;;;;17.80;63.13;96991.86;1774649;80;20914;-66
2021/05/17 08:16:38;;;;;;;1.50;1.20;;;;;;;17.76;62.71;96990.44;1774623;80;21006;-66
2021/05/17 08:19:05;;;;;;;4.42;2.15;;;;;;;17.76;61.92;96993.94;1795756;79;21136;-62
2021/05/17 08:21:33;;;;;;;0.68;0.47;;;;;;;17.81;62.17;96994.20;1806491;79;21511;-64
2021/05/17 08:24:00;;;;;;;1.87;0.53;;;;;;;17.82;60.57;96994.99;1806367;79;20957;-68
2021/05/17 08:26:27;;;;;;;2.42;0.68;;;;;;;17.78;60.96;96987.39;1806378;79;20968;-66
2021/05/17 08:28:54;;;;;;;1.98;0.60;;;;;;;17.76;59.68;96992.58;1806470;79;21499;-64
2021/05/17 08:31:23;;;;;;;2.08;1.20;;;;;;;17.70;59.86;96983.20;1800345;79;21556;-68
2021/05/17 08:33:50;;;;;;;6.47;1.40;;;;;;;17.65;60.45;96982.70;1793533;79;20839;-65
2021/05/17 08:36:18;;;;;;;6.22;2.15;;;;;;;17.69;60.73;96978.91;1779030;79;21472;-64
2021/05/17 08:38:45;;;;;;;2.12;0.80;;;;;;;17.84;60.91;96979.95;1788639;79;20942;-67
2021/05/17 08:41:12;;;;;;;3.87;1.00;;;;;;;18.04;60.50;96982.03;1784841;79;21241;-67
2021/05/17 08:43:41;;;;;;;8.78;1.20;;;;;;;18.23;60.56;96972.47;1786180;78;21378;-63
2021/05/17 08:46:10;;;;;;;2.10;0.80;;;;;;;18.41;59.83;96974.87;1801742;79;20875;-67
2021/05/17 08:48:47;;;;;;;3.15;0.70;;;;;;;18.51;58.92;96968.86;1804786;79;21365;-67
2021/05/17 08:51:26;;;;;;;0.62;0.50;;;;;;;18.44;58.09;96968.73;1804675;79;20946;-66
2021/05/17 08:53:54;;;;;;;1.07;0.53;;;;;;;18.15;58.06;96961.30;1784847;79;21049;-64
2021/05/17 08:56:23;;;;;;;0.93;0.65;;;;;;;17.87;58.60;96964.34;1780307;79;20946;-68
2021/05/17 08:58:56;;;;;;;1.00;0.68;;;;;;;17.76;58.35;96965.49;1806339;79;20961;-62
2021/05/17 09:01:23;;;;;;;1.67;0.90;;;;;;;17.80;58.39;96961.51;1806393;79;20915;-67
2021/05/17 09:04:10;;;;;;;7.95;0.93;;;;;;;17.96;58.38;96966.80;1789983;79;20995;-66
2021/05/17 09:06:48;;;;;;;0.88;0.70;;;;;;;18.08;58.15;96959.83;1821375;78;21406;-66
2021/05/17 09:09:32;;;;;;;10.40;2.37;;;;;;;18.03;57.61;96958.78;1795495;77;21547;-65
2021/05/17 09:12:02;;;;;;;1.75;0.70;;;;;;;17.91;58.01;96957.61;1782218;80;20951;-65
2021/05/17 09:14:30;;;;;;;5.05;1.82;;;;;;;17.90;57.16;96954.70;1782153;80;20848;-67
2021/05/17 09:17:03;;;;;;;1.62;0.80;;;;;;;18.00;57.79;96948.66;1788889;79;20860;-65
2021/05/17 09:19:32;;;;;;;1.47;0.57;;;;;;;18.22;57.28;96951.92;1789253;77;20993;-63
2021/05/17 09:22:15;;;;;;;1.55;0.60;;;;;;;18.50;58.00;96946.95;1799382;79;21033;-68
2021/05/17 09:24:49;;;;;;;1.17;0.88;;;;;;;18.67;55.79;96943.70;1741423;82;20981;-70
2021/05/17 09:27:25;;;;;;;0.82;0.72;;;;;;;18.66;55.94;96933.20;1729923;83;21366;-64
2021/05/17 09:29:57;;;;;;;2.10;0.80;;;;;;;18.61;57.03;96934.31;1750165;80;20973;-64
2021/05/17 09:32:34;;;;;;;1.37;0.90;;;;;;;18.68;57.35;96929.55;1766934;81;21040;-63
2021/05/17 09:35:10;;;;;;;1.72;0.80;;;;;;;18.84;57.22;96930.16;1771652;80;21098;-68
2021/05/17 09:38:11;;;;;;;5.83;0.70;;;;;;;18.99;56.24;96927.81;1758967;81;20981;-66
2021/05/17 09:40:42;;;;;;;1.77;0.80;;;;;;;19.11;55.94;96918.86;1805699;78;21106;-66
2021/05/17 09:43:11;;;;;;;0.60;0.60;;;;;;;19.26;54.42;96922.52;1797423;78;21103;-64
2021/05/17 09:45:45;;;;;;;0.90;0.65;;;;;;;19.40;54.98;96919.20;1805550;78;21564;-66
2021/05/17 09:48:17;;;;;;;0.50;0.50;;;;;;;19.46;54.49;96911.69;1757202;79;21134;-68
2021/05/17 09:51:10;;;;;;;1.45;0.70;;;;;;;19.38;53.34;96918.78;1770717;81;21004;-61
2021/05/17 09:53:43;;;;;;;6.15;1.37;;;;;;;19.30;53.43;96915.19;1770919;80;21364;-68
2021/05/17 09:56:19;;;;;;;10.05;2.70;;;;;;;19.26;54.17;96911.66;1775753;79;21039;-65
2021/05/17 09:58:49;;;;;;;7.87;1.80;;;;;;;19.34;54.22;96908.42;1771018;79;20923;-65
2021/05/17 10:01:25;;;;;;;0.70;0.60;;;;;;;19.55;52.19;96903.22;1770693;81;21056;-67
2021/05/17 10:03:54;;;;;;;2.65;0.60;;;;;;;19.70;53.27;96899.49;1772150;79;21008;-66
2021/05/17 10:06:23;;;;;;;1.12;0.57;;;;;;;19.94;53.08;96906.29;1769735;81;21107;-65
2021/05/17 10:08:52;;;;;;;8.55;1.00;;;;;;;20.19;51.97;96899.87;1769558;81;21149;-68
2021/05/17 10:11:20;;;;;;;3.50;0.70;;;;;;;20.44;53.18;96889.95;1771782;79;21084;-67
2021/05/17 10:14:10;;;;;;;2.50;0.60;;;;;;;20.71;52.13;96880.17;1776097;79;21037;-66
2021/05/17 10:16:41;;;;;;;0.85;0.53;;;;;;;20.82;51.63;96879.66;1774510;80;21037;-64
2021/05/17 10:19:11;;;;;;;0.45;0.40;;;;;;;20.84;50.87;96878.11;1734067;81;21016;-63
2021/05/17 10:21:42;;;;;;;0.80;0.70;;;;;;;20.75;50.19;96878.27;1717398;81;21912;-61
2021/05/17 10:24:10;;;;;;;0.62;0.60;;;;;;;20.58;50.28;96870.80;1743738;82;21111;-65
2021/05/17 10:26:39;;;;;;;3.87;0.75;;;;;;;20.43;50.17;96869.37;1723788;81;21037;-67
2021/05/17 10:29:06;;;;;;;1.10;0.80;;;;;;;20.36;50.33;96865.25;1716002;82;21575;-63
2021/05/17 10:31:34;;;;;;;1.47;0.80;;;;;;;20.32;49.73;96873.98;1686881;84;21038;-67
2021/05/17 10:34:07;;;;;;;1.12;0.75;;;;;;;20.22;49.40;96871.18;1724364;82;21285;-70
2021/05/17 10:36:59;;;;;;;1.05;0.60;;;;;;;20.17;49.53;96879.08;1725313;83;21009;-64
2021/05/17 10:39:42;;;;;;;1.30;0.80;;;;;;;20.06;49.90;96870.66;1724272;82;20972;-67
2021/05/17 10:42:36;;;;;;;1.25;0.70;;;;;;;19.95;50.28;96867.86;1723111;81;20940;-64
2021/05/17 10:48:26;;;;;;;1.77;0.75;;;;;;;19.98;50.51;96861.67;1786394;80;21545;-65
2021/05/17 10:51:19;;;;;;;3.37;0.57;;;;;;;20.03;50.19;96855.89;1785988;80;21018;-67
2021/05/17 10:53:54;;;;;;;1.42;0.50;;;;;;;20.15;50.73;96857.52;1755993;80;21071;-66
2021/05/17 10:56:53;;;;;;;0.47;0.45;;;;;;;20.43;50.14;96850.33;1755239;81;21509;-63
2021/05/17 11:02:02;;;;;;;1.62;0.50;;;;;;;20.56;49.47;96860.88;1755195;81;21058;-67
2021/05/17 11:04:35;;;;;;;1.57;0.50;;;;;;;20.48;49.31;96855.20;1731015;81;21078;-66
2021/05/17 11:07:16;;;;;;;2.65;0.50;;;;;;;20.41;49.57;96848.58;1756960;79;21045;-66
2021/05/17 11:09:54;;;;;;;5.40;0.70;;;;;;;20.30;49.15;96850.44;1730344;81;20911;-71
2021/05/17 11:12:32;;;;;;;2.30;0.60;;;;;;;20.11;49.94;96858.86;1753256;81;21055;-66
2021/05/17 11:15:13;;;;;;;2.67;0.70;;;;;;;20.02;49.74;96862.47;1776876;80;21430;-66
2021/05/17 11:18:03;;;;;;;1.90;0.53;;;;;;;19.89;49.70;96857.72;1769012;79;21734;-64
2021/05/17 11:20:51;;;;;;;0.50;0.50;;;;;;;19.76;50.35;96858.59;1755255;81;21150;-67
2021/05/17 11:23:26;;;;;;;1.20;0.50;;;;;;;19.72;50.72;96853.14;1753855;81;21157;-67
2021/05/17 11:26:03;;;;;;;1.37;0.30;;;;;;;19.70;51.31;96854.09;1775101;79;21023;-67
2021/05/17 11:28:41;;;;;;;1.10;0.30;;;;;;;19.69;50.80;96862.03;1806416;79;20902;-68
2021/05/17 11:31:35;;;;;;;1.52;0.50;;;;;;;19.66;51.12;96851.16;1814734;78;21474;-69
2021/05/17 11:34:09;;;;;;;1.22;0.60;;;;;;;19.62;51.20;96855.75;1769214;80;21084;-66
2021/05/17 11:37:09;;;;;;;1.87;0.50;;;;;;;19.53;51.15;96855.30;1769333;80;21574;-64
2021/05/17 11:39:39;;;;;;;2.20;0.60;;;;;;;19.43;51.42;96853.29;1769549;81;21602;-67
2021/05/17 11:42:11;;;;;;;0.95;0.65;;;;;;;19.38;52.17;96857.70;1754069;81;21103;-70
2021/05/17 11:45:11;;;;;;;1.07;0.80;;;;;;;19.31;51.66;96856.24;1769345;81;21027;-69
2021/05/17 11:47:28;;;;;;;0.90;0.80;;;;;;;19.17;51.92;96854.75;1764530;81;21099;-68
2021/05/17 13:12:51;;;;;;;2.22;0.80;;;;;;;18.85;53.20;96819.92;1856146;76;22370;-63
2021/05/17 13:15:22;;;;;;;1.15;0.80;;;;;;;18.95;52.56;96811.12;1817139;77;21051;-63
2021/05/17 13:18:01;;;;;;;0.60;0.60;;;;;;;19.11;52.53;96817.09;1832111;77;21074;-60
2021/05/17 13:20:28;;;;;;;1.27;0.60;;;;;;;19.30;52.29;96812.59;1818298;77;20993;-61
2021/05/17 13:31:30;;;;;;;1.20;1.10;;;;;;;19.50;50.56;96809.91;1817240;77;20938;-61
2021/05/17 13:33:58;;;;;;;1.35;0.80;;;;;;;19.41;50.33;96808.84;1707161;81;21514;-64
2021/05/17 13:36:25;;;;;;;1.67;1.10;;;;;;;19.31;50.03;96803.31;1823175;77;20890;-62
2021/05/17 13:38:54;;;;;;;4.45;1.25;;;;;;;19.21;51.48;96793.91;1818316;77;21589;-64
2021/05/17 13:41:25;;;;;;;1.75;0.80;;;;;;;19.14;51.33;96791.14;1816513;79;21023;-64
2021/05/17 13:43:53;;;;;;;2.52;0.70;;;;;;;19.12;51.20;96794.20;1816355;78;21378;-62
2021/05/17 13:46:20;;;;;;;2.35;0.60;;;;;;;19.13;51.47;96793.06;1816590;79;20874;-63
2021/05/17 13:48:48;;;;;;;2.20;0.68;;;;;;;19.11;51.24;96791.30;1816611;79;21454;-60
2021/05/17 13:51:20;;;;;;;1.30;0.80;;;;;;;19.08;50.66;96786.62;1815923;79;21041;-59
2021/05/17 13:53:47;;;;;;;1.40;0.70;;;;;;;19.08;50.36;96787.97;1814966;79;21016;-63
2021/05/17 13:56:15;;;;;;;3.15;0.93;;;;;;;19.08;50.83;96781.19;1816116;79;21063;-69
2021/05/17 13:58:42;;;;;;;3.75;1.27;;;;;;;19.15;51.08;96783.78;1815905;78;21012;-65
2021/05/17 14:01:10;;;;;;;10.18;1.27;;;;;;;19.19;50.39;96781.88;1815725;78;21628;-63
2021/05/17 14:03:38;;;;;;;1.70;0.78;;;;;;;19.24;50.71;96776.89;1812321;78;21550;-60
2021/05/17 14:06:05;;;;;;;5.08;0.85;;;;;;;19.27;50.81;96774.77;1821361;78;21029;-62
2021/05/17 14:08:32;;;;;;;0.65;0.60;;;;;;;19.33;50.04;96771.13;1821391;78;21427;-62
2021/05/17 14:11:00;;;;;;;1.17;0.70;;;;;;;19.39;49.92;96769.64;1820709;78;21041;-60
2021/05/17 14:13:28;;;;;;;3.77;0.80;;;;;;;19.49;49.99;96767.59;1818552;79;21053;-61
2021/05/17 14:15:55;;;;;;;0.90;0.80;;;;;;;19.61;50.15;96761.87;1819123;79;21031;-63
2021/05/17 14:18:22;;;;;;;1.57;0.72;;;;;;;19.68;49.04;96755.13;1819076;79;20965;-62
2021/05/17 14:20:49;;;;;;;13.25;0.93;;;;;;;19.68;48.50;96755.13;1819040;79;21075;-62
2021/05/17 14:23:17;;;;;;;5.60;0.60;;;;;;;19.68;49.19;96759.20;1818734;79;20878;-63
2021/05/17 14:25:44;;;;;;;1.82;0.70;;;;;;;19.71;49.35;96751.66;1818416;79;21053;-61
2021/05/17 14:28:11;;;;;;;3.02;0.70;;;;;;;19.72;48.47;96753.20;1818559;78;20994;-65
2021/05/17 14:30:38;;;;;;;1.00;0.60;;;;;;;19.74;49.25;96753.59;1818881;79;20886;-63
2021/05/17 14:33:10;;;;;;;1.20;0.55;;;;;;;19.75;48.35;96752.45;1818679;79;21083;-62
2021/05/17 14:35:38;;;;;;;4.05;0.80;;;;;;;19.73;48.41;96746.63;1818339;79;20832;-61
2021/05/17 14:38:05;;;;;;;3.77;0.70;;;;;;;19.68;49.06;96741.55;1818521;78;20898;-63
2021/05/17 14:40:33;;;;;;;2.92;0.50;;;;;;;19.68;49.55;96741.55;1818609;79;21100;-61
2021/05/17 14:43:00;;;;;;;6.50;0.85;;;;;;;19.69;49.22;96734.94;1818864;78;20905;-62
2021/05/17 14:45:29;;;;;;;2.60;0.50;;;;;;;19.72;49.55;96738.27;1818606;78;21416;-63
2021/05/17 14:47:57;;;;;;;2.50;0.60;;;;;;;19.77;49.21;96733.84;1809464;79;20894;-61
2021/05/17 14:50:24;;;;;;;7.85;0.40;;;;;;;19.81;48.88;96733.27;1818483;79;20902;-63
2021/05/17 14:52:51;;;;;;;3.90;0.72;;;;;;;19.79;47.15;96735.59;1818507;78;20999;-61
2021/05/17 14:55:18;;;;;;;0.60;0.37;;;;;;;19.73;47.12;96732.47;1818495;79;20995;-60
2021/05/17 14:57:46;;;;;;;2.90;0.50;;;;;;;19.69;47.82;96730.29;1818419;79;21063;-60
2021/05/17 15:00:17;;;;;;;0.95;0.40;;;;;;;19.70;48.47;96729.14;1818243;79;21573;-66
2021/05/17 15:02:44;;;;;;;0.72;0.47;;;;;;;19.75;48.89;96728.79;1818394;79;20902;-62
2021/05/17 15:05:13;;;;;;;2.85;0.72;;;;;;;19.79;49.27;96724.72;1818457;79;20974;-60
2021/05/17 15:07:42;;;;;;;4.17;0.60;;;;;;;19.81;48.61;96723.75;1818508;78;20894;-61
2021/05/17 15:10:15;;;;;;;1.85;0.47;;;;;;;19.78;49.04;96724.54;1818585;78;21072;-62
2021/05/17 15:12:45;;;;;;;4.47;0.75;;;;;;;19.75;48.71;96722.57;1818455;78;20954;-61
2021/05/17 15:15:15;;;;;;;0.60;0.42;;;;;;;19.71;49.32;96728.58;1818800;77;21029;-62
2021/05/17 15:17:43;;;;;;;1.80;0.70;;;;;;;19.75;49.11;96727.44;1825122;78;20937;-62
2021/05/17 15:20:13;;;;;;;2.35;0.60;;;;;;;19.90;48.58;96729.66;1825163;78;21671;-62
2021/05/17 15:22:41;;;;;;;0.80;0.60;;;;;;;20.19;48.18;96723.17;1825179;78;21072;-62
2021/05/17 15:25:12;;;;;;;2.92;0.90;;;;;;;20.75;47.42;96721.81;1825092;78;20870;-61
2021/05/17 15:27:39;;;;;;;0.68;0.62;;;;;;;21.41;46.45;96722.44;1825379;78;21414;-67
2021/05/17 15:30:11;;;;;;;1.95;0.65;;;;;;;22.11;45.05;96720.77;1824964;78;21467;-61
2021/05/17 15:32:38;;;;;;;1.52;0.75;;;;;;;22.67;44.38;96721.11;1825220;78;20847;-63
2021/05/17 15:35:09;;;;;;;2.25;0.70;;;;;;;23.12;42.12;96713.98;1825354;78;21331;-65
2021/05/17 15:37:38;;;;;;;3.33;0.70;;;;;;;23.50;41.55;96712.70;1825096;78;20929;-63
2021/05/17 15:40:12;;;;;;;5.00;1.12;;;;;;;23.89;40.59;96710.35;1825400;78;21040;-62
2021/05/17 15:42:39;;;;;;;4.67;1.10;;;;;;;24.29;39.67;96707.37;1825196;78;20985;-64
2021/05/17 15:45:08;;;;;;;5.00;1.20;;;;;;;24.57;38.61;96704.84;1825182;78;20850;-61
2021/05/17 15:47:40;;;;;;;2.65;0.88;;;;;;;24.62;38.51;96698.92;1825155;78;21060;-61
2021/05/17 15:50:12;;;;;;;2.55;0.60;;;;;;;24.58;38.80;96704.45;1825329;78;21352;-65
2021/05/17 15:52:43;;;;;;;1.20;0.68;;;;;;;24.39;38.70;96704.52;1825325;78;20909;-63
2021/05/17 15:55:14;;;;;;;4.80;0.82;;;;;;;23.96;39.12;96704.02;1825370;78;20942;-62
2021/05/17 15:57:41;;;;;;;3.33;0.72;;;;;;;23.46;39.82;96706.52;1825306;78;21458;-64
2021/05/17 16:00:12;;;;;;;3.70;0.90;;;;;;;22.97;41.04;96704.91;1825554;78;21055;-60
2021/05/17 16:02:43;;;;;;;2.37;0.90;;;;;;;22.45;42.09;96706.77;1825271;78;20961;-63
2021/05/17 16:05:11;;;;;;;6.78;1.50;;;;;;;22.06;42.99;96707.53;1824964;78;20863;-62
2021/05/17 16:07:38;;;;;;;4.12;0.98;;;;;;;21.84;43.83;96706.83;1825014;78;20866;-64
2021/05/17 16:10:08;;;;;;;0.70;0.60;;;;;;;21.62;44.30;96707.42;1825052;78;20905;-65
2021/05/17 16:12:42;;;;;;;2.35;0.90;;;;;;;21.36;44.90;96713.30;1825133;78;20977;-65
2021/05/17 16:15:18;;;;;;;0.90;0.60;;;;;;;21.06;45.70;96709.62;1822794;78;20907;-65
2021/05/17 16:22:59;;;;;;;2.67;0.98;;;;;;;20.41;47.90;96705.80;1822815;78;20863;-61
2021/05/17 16:25:28;;;;;;;3.90;1.30;;;;;;;20.18;48.49;96709.39;1822705;78;21679;-62
2021/05/17 16:27:56;;;;;;;2.83;1.10;;;;;;;19.97;49.17;96703.88;1822571;78;20921;-61
2021/05/17 16:30:24;;;;;;;1.75;0.90;;;;;;;19.79;49.91;96701.63;1822895;78;21452;-63
2021/05/17 16:32:51;;;;;;;2.52;1.20;;;;;;;19.63;50.51;96704.66;1822918;78;20969;-61
2021/05/17 16:35:18;;;;;;;2.25;1.20;;;;;;;19.45;50.79;96705.70;1822753;78;21006;-63
2021/05/17 16:37:46;;;;;;;2.20;1.10;;;;;;;19.33;51.23;96701.91;1822746;78;21755;-64
2021/05/17 16:40:16;;;;;;;14.90;3.08;;;;;;;19.21;51.98;96704.91;1822520;78;21516;-63
2021/05/17 16:42:43;;;;;;;6.55;1.55;;;;;;;19.02;52.42;96709.44;1822661;78;21041;-61
2021/05/17 16:45:13;;;;;;;4.50;1.22;;;;;;;18.87;52.76;96705.03;1823064;78;21430;-63
2021/05/17 16:47:40;;;;;;;3.08;1.30;;;;;;;18.72;53.67;96707.42;1823122;78;20964;-63
2021/05/17 16:50:10;;;;;;;2.50;1.00;;;;;;;18.56;53.97;96706.85;1822827;78;20913;-65
2021/05/17 16:52:37;;;;;;;4.30;1.20;;;;;;;18.40;54.68;96703.56;1822756;78;20909;-66
2021/05/17 16:55:06;;;;;;;3.58;1.00;;;;;;;18.27;55.09;96702.27;1823028;78;20910;-62
2021/05/17 16:57:34;;;;;;;1.65;0.85;;;;;;;18.13;55.33;96703.47;1823349;78;20958;-61
2021/05/17 17:00:02;;;;;;;2.37;1.20;;;;;;;18.00;55.95;96700.77;1823037;78;21085;-62
2021/05/17 17:02:29;;;;;;;6.85;1.40;;;;;;;17.87;56.44;96707.59;1823258;78;21097;-66
2021/05/17 17:04:56;;;;;;;10.25;1.35;;;;;;;17.76;56.86;96709.58;1823997;78;21331;-62
2021/05/17 17:07:23;;;;;;;4.85;1.65;;;;;;;17.67;56.94;96713.70;1823932;78;20890;-63
2021/05/17 17:09:52;;;;;;;13.98;1.90;;;;;;;17.60;57.00;96720.37;1823175;78;21407;-64
2021/05/17 17:12:20;;;;;;;2.60;1.20;;;;;;;17.53;57.35;96714.29;1823031;78;20898;-66
2021/05/17 17:14:49;;;;;;;2.08;1.10;;;;;;;17.46;57.72;96715.52;1823755;78;20897;-65
2021/05/17 17:17:18;;;;;;;1.65;1.12;;;;;;;17.36;57.94;96714.02;1824387;78;20886;-63
2021/05/17 17:19:45;;;;;;;2.35;1.07;;;;;;;17.25;58.52;96719.25;1824617;78;21530;-63
2021/05/17 17:22:13;;;;;;;1.67;0.93;;;;;;;17.13;58.90;96716.74;1825356;78;20957;-67
2021/05/17 17:24:43;;;;;;;6.75;1.10;;;;;;;17.04;59.29;96716.21;1824699;78;20966;-64
2021/05/17 17:27:11;;;;;;;4.40;1.00;;;;;;;16.94;59.80;96714.11;1824404;78;21130;-67
2021/05/17 17:29:39;;;;;;;2.55;1.00;;;;;;;16.83;60.49;96717.21;1824337;78;20986;-71
2021/05/17 17:32:08;;;;;;;5.83;1.70;;;;;;;16.74;60.79;96718.03;1824548;78;20898;-63
2021/05/17 17:34:39;;;;;;;1.55;1.07;;;;;;;16.64;61.09;96717.27;1824562;78;20969;-61
2021/05/17 17:37:12;;;;;;;1.47;0.80;;;;;;;16.56;61.51;96715.00;1824585;78;21139;-64
